windsock image

Welcome to Bigfield Strip.

anemometer image
     

 Help for dials.  
 
Local Met:

Wind:   
10 Min average:  
355 ° / 0.0 kts (0.0)
355° / 0.0

Temperature:  
10.0°C C
Dew Point:  
8.3°C C
QNH:  
Trend:  
1018.2 mb mb
+0.1mb/hr
BigField Strip. This image updates approximately every minute, it can have a two minute delay.  
 

Humidity:  
89 %
Sunrise:   05:19z
Sunset:   18:44z
Updated:  
  UTC
 
   More met info, trends, radar, history etc. available here   

LUTON Metar   EGGW 042020Z 30004KT 9999 SCT046 11/07 Q1018
 
  TAF   2015/09/04 18:16 TAF EGGW 041700Z 0418/0518 34008KT 9999 SCT040 TEMPO 0502/0508 8000 -RA BKN012 PROB30 TEMPO 0503/0507 4000 -RADZ BR BKN004
 
BENSON Metar   EGUB 041950Z AUTO 09001KT 9999 // FEW048/// OVC180/// 11/08 Q1018
 
  TAF   2015/09/04 15:39 TAF EGUB 041620Z 0415/0419 CNL
 
Big Field view 1 icon   Big Field view 2 icon   Big Field view 3 icon   Chart AL3a in PDF icon   Chart AL3a in Word icon

WARNING:
This information is provided by the Airstrip unofficial weather station, DO NOT depend on the data provided here for any purpose.
This page is updated for latest Metars & TAF's every 5 minutes. Refresh the browser to check for the lastest.
Page designed for a minimum browser size of 1024x768.
© Copyright 2015 BigField Strip. This page auto generated 20:56 UTC - 04/09/2015   Contact Us
Valid HTML 4.01 Transitional     Windows uptime: 4 Days 18 Hours 24 Minutes 25 Seconds    WD started: 02:37 31/08/15    Free memory: 1518MB     Valid CSS!